createdAt,value
2022-10-06T00:04:55.629Z,11.95
2022-10-06T00:09:59.518Z,11.82
2022-10-06T00:15:03.419Z,11.75
2022-10-06T00:20:11.087Z,11.63
2022-10-06T00:25:20.960Z,11.87
2022-10-06T00:30:26.941Z,11.51
2022-10-06T00:35:34.454Z,11.79
2022-10-06T00:40:44.802Z,11.62
2022-10-06T00:45:50.336Z,11.65
2022-10-06T00:50:59.147Z,11.28
2022-10-06T00:56:03.291Z,11.29
2022-10-06T01:01:09.246Z,11.23
2022-10-06T01:06:14.870Z,11.51
2022-10-06T01:11:21.656Z,11.41
2022-10-06T01:16:27.411Z,11.21
2022-10-06T01:21:39.547Z,11.19
2022-10-06T01:26:51.279Z,11.33
2022-10-06T01:31:55.915Z,11.28
2022-10-06T01:37:00.354Z,10.86
2022-10-06T01:42:07.089Z,10.97
2022-10-06T01:47:11.518Z,11.10
2022-10-06T01:52:15.551Z,11.15
2022-10-06T01:57:21.903Z,10.79
2022-10-06T02:02:26.800Z,11.13
2022-10-06T02:07:30.671Z,10.86
2022-10-06T02:12:36.413Z,10.85
2022-10-06T02:17:40.395Z,10.89
2022-10-06T02:22:44.794Z,11.13
2022-10-06T02:27:50.283Z,10.96
2022-10-06T02:32:54.697Z,10.75
2022-10-06T02:37:58.876Z,10.84
2022-10-06T02:43:05.091Z,10.67
2022-10-06T02:48:09.277Z,10.76
2022-10-06T02:53:14.552Z,10.48
2022-10-06T02:58:19.904Z,10.54
2022-10-06T03:03:24.075Z,10.59
2022-10-06T03:08:28.364Z,10.44
2022-10-06T03:13:35.003Z,10.55
2022-10-06T03:18:40.149Z,10.28
2022-10-06T03:23:45.168Z,10.21
2022-10-06T03:28:50.745Z,10.22
2022-10-06T03:33:56.739Z,10.14
2022-10-06T03:39:04.899Z,10.24
2022-10-06T03:44:11.810Z,10.24
2022-10-06T03:49:18.913Z,10.30
2022-10-06T03:54:22.933Z,10.30
2022-10-06T03:59:34.374Z,10.32
2022-10-06T04:04:40.376Z,10.24
2022-10-06T04:09:46.776Z,10.29
2022-10-06T04:14:57.903Z,10.34
2022-10-06T04:20:04.891Z,10.27
2022-10-06T04:25:09.775Z,10.16
2022-10-06T04:30:16.039Z,10.31
2022-10-06T04:35:21.420Z,10.26
2022-10-06T04:40:25.889Z,10.32
2022-10-06T04:45:31.502Z,10.32
2022-10-06T04:50:35.650Z,10.26
2022-10-06T04:55:47.800Z,10.39
2022-10-06T05:00:53.441Z,10.41
2022-10-06T05:06:04.807Z,10.59
2022-10-06T05:11:15.208Z,10.38
2022-10-06T05:16:25.031Z,10.69
2022-10-06T05:21:31.228Z,10.75
2022-10-06T05:26:37.930Z,11.34
2022-10-06T05:31:46.995Z,11.42
2022-10-06T05:36:52.169Z,11.49
2022-10-06T05:41:56.166Z,11.42
2022-10-06T05:47:05.781Z,11.56
2022-10-06T05:52:09.816Z,11.39
2022-10-06T05:57:14.040Z,11.50
2022-10-06T06:02:19.513Z,11.96
2022-10-06T06:07:23.643Z,12.17
2022-10-06T06:12:28.081Z,12.82
2022-10-06T06:17:52.639Z,13.21
2022-10-06T06:22:56.604Z,13.54
2022-10-06T06:28:05.539Z,13.16
2022-10-06T06:33:13.181Z,13.47
2022-10-06T06:38:23.341Z,13.81
2022-10-06T06:43:31.364Z,13.18
2022-10-06T06:49:04.803Z,13.38
2022-10-06T06:54:14.346Z,13.63
2022-10-06T06:59:22.694Z,13.69
2022-10-06T07:04:33.085Z,13.28
2022-10-06T07:09:37.909Z,13.83
2022-10-06T07:15:01.245Z,13.82
2022-10-06T07:20:27.370Z,14.13
2022-10-06T07:25:32.254Z,13.85
2022-10-06T07:30:41.245Z,14.02
2022-10-06T07:35:57.563Z,14.00
2022-10-06T07:46:30.382Z,14.64
2022-10-06T07:51:49.805Z,14.62
2022-10-06T07:56:54.933Z,14.70
2022-10-06T08:01:58.937Z,14.94
2022-10-06T08:07:05.602Z,14.95
2022-10-06T08:12:23.256Z,15.26
2022-10-06T08:17:27.297Z,15.35
2022-10-06T08:22:32.694Z,15.48
2022-10-06T08:27:38.103Z,16.02
2022-10-06T08:32:43.408Z,16.25
2022-10-06T08:37:50.308Z,16.08
2022-10-06T08:42:58.308Z,16.35
2022-10-06T08:48:05.312Z,16.58
2022-10-06T08:53:17.787Z,16.58
2022-10-06T08:58:32.385Z,16.66
2022-10-06T09:03:38.726Z,17.09
2022-10-06T09:08:51.114Z,17.17
2022-10-06T09:14:38.022Z,17.46
2022-10-06T09:34:02.060Z,18.28
2022-10-06T09:45:37.600Z,18.81
2022-10-06T09:57:49.401Z,18.91
2022-10-06T10:04:21.559Z,18.83
2022-10-06T10:38:18.294Z,18.45
2022-10-06T10:45:41.432Z,19.08
2022-10-06T11:42:37.841Z,19.20
2022-10-06T11:48:25.558Z,19.09
2022-10-06T12:17:05.648Z,20.16
2022-10-06T12:22:18.848Z,19.47
2022-10-06T12:27:56.797Z,19.28
2022-10-06T13:18:14.656Z,20.64
2022-10-06T13:23:37.578Z,20.87
2022-10-06T13:28:48.014Z,20.40
2022-10-06T13:33:56.711Z,21.75
2022-10-06T13:39:04.492Z,21.51
2022-10-06T13:44:29.136Z,21.41
2022-10-06T13:50:04.318Z,20.47
2022-10-06T13:55:20.574Z,20.06
2022-10-06T14:00:28.953Z,19.50
2022-10-06T14:05:37.364Z,19.44
2022-10-06T14:10:49.948Z,19.56
2022-10-06T14:16:04.083Z,19.99
2022-10-06T14:21:22.773Z,19.17
2022-10-06T14:26:37.865Z,19.10
2022-10-06T14:31:42.265Z,19.11
2022-10-06T14:36:48.906Z,19.01
2022-10-06T14:41:54.463Z,19.00
2022-10-06T14:46:59.049Z,18.75
2022-10-06T14:52:04.335Z,20.18
2022-10-06T14:57:10.988Z,21.35
2022-10-06T15:02:20.359Z,21.29
2022-10-06T15:07:42.546Z,21.70
2022-10-06T15:12:48.223Z,20.62
2022-10-06T15:17:52.881Z,19.42
2022-10-06T15:22:57.570Z,18.71
2022-10-06T15:28:22.961Z,18.31
2022-10-06T15:33:30.636Z,18.16
2022-10-06T15:38:37.735Z,17.95
2022-10-06T15:43:58.446Z,17.95
2022-10-06T15:49:04.831Z,17.79
2022-10-06T15:54:11.323Z,18.30
2022-10-06T15:59:17.085Z,17.98
2022-10-06T16:04:29.277Z,17.62
2022-10-06T16:09:38.101Z,17.83
2022-10-06T16:14:46.825Z,17.08
2022-10-06T16:19:50.887Z,17.27
2022-10-06T16:24:54.926Z,16.69
2022-10-06T16:30:00.576Z,16.49
2022-10-06T16:35:04.673Z,16.89
2022-10-06T16:40:09.373Z,16.48
2022-10-06T16:45:15.617Z,16.24
2022-10-06T16:50:19.575Z,16.13
2022-10-06T16:55:23.679Z,16.14
2022-10-06T17:00:29.111Z,16.06
2022-10-06T17:05:34.789Z,16.00
2022-10-06T17:10:38.685Z,16.35
2022-10-06T17:15:46.450Z,16.27
2022-10-06T17:20:55.491Z,16.60
2022-10-06T17:26:04.881Z,16.75
2022-10-06T17:31:13.324Z,16.33
2022-10-06T17:36:19.937Z,15.83
2022-10-06T17:41:29.661Z,15.64
2022-10-06T17:46:38.752Z,15.58
2022-10-06T17:51:45.199Z,15.65
2022-10-06T17:56:51.021Z,15.33
2022-10-06T18:01:57.457Z,15.24
2022-10-06T18:07:02.447Z,15.27
2022-10-06T18:12:07.948Z,15.47
2022-10-06T18:17:19.126Z,15.53
2022-10-06T18:22:23.614Z,15.43
2022-10-06T18:27:28.011Z,15.47
2022-10-06T18:38:03.280Z,15.40
2022-10-06T18:43:07.551Z,15.33
2022-10-06T18:48:30.284Z,15.54
2022-10-06T18:53:38.556Z,15.41
2022-10-06T18:58:43.030Z,15.24
2022-10-06T19:03:48.977Z,15.17
2022-10-06T19:08:57.324Z,15.18
2022-10-06T19:14:01.675Z,15.14
2022-10-06T19:19:11.752Z,15.40
2022-10-06T19:24:17.680Z,14.98
2022-10-06T19:29:23.803Z,15.19
2022-10-06T19:34:29.518Z,15.05
2022-10-06T19:39:40.473Z,15.24
2022-10-06T19:44:44.975Z,15.48
2022-10-06T19:49:50.983Z,15.45
2022-10-06T19:54:55.030Z,15.84
2022-10-06T19:59:59.078Z,15.49
2022-10-06T20:05:04.576Z,15.58
2022-10-06T20:10:09.279Z,15.90
2022-10-06T20:15:13.441Z,15.18
2022-10-06T20:20:20.695Z,15.27
2022-10-06T20:25:26.521Z,15.53
2022-10-06T20:30:31.403Z,15.37
2022-10-06T20:35:37.919Z,15.34
2022-10-06T20:40:49.376Z,15.45
2022-10-06T20:45:54.961Z,15.54
2022-10-06T20:51:00.219Z,15.69
2022-10-06T20:56:07.189Z,15.34
2022-10-06T21:01:16.231Z,15.27
2022-10-06T21:06:25.062Z,14.89
2022-10-06T21:11:29.368Z,15.22
2022-10-06T21:16:36.661Z,15.23
2022-10-06T21:21:43.328Z,15.32
2022-10-06T21:26:47.655Z,15.30
2022-10-06T21:31:51.823Z,15.42
2022-10-06T21:37:03.621Z,15.47
2022-10-06T21:42:10.453Z,15.17
2022-10-06T21:47:16.387Z,15.52
2022-10-06T21:52:22.214Z,15.45
2022-10-06T21:57:28.340Z,15.20
2022-10-06T22:02:32.805Z,14.99
2022-10-06T22:07:38.601Z,15.24
2022-10-06T22:12:42.726Z,15.28
2022-10-06T22:17:51.452Z,15.59
2022-10-06T22:22:59.347Z,16.07
2022-10-06T22:28:10.269Z,15.95
2022-10-06T22:33:18.713Z,15.64
2022-10-06T22:38:30.046Z,15.40
2022-10-06T22:43:35.483Z,15.59
2022-10-06T22:48:40.762Z,16.04
2022-10-06T22:53:46.845Z,15.47
2022-10-06T22:58:52.740Z,14.80
2022-10-06T23:03:57.347Z,14.78
2022-10-06T23:09:03.914Z,14.47
2022-10-06T23:14:13.773Z,14.25
2022-10-06T23:19:24.145Z,14.00
2022-10-06T23:24:37.223Z,13.49
2022-10-06T23:29:51.694Z,14.25
2022-10-06T23:34:57.519Z,14.21
2022-10-06T23:40:10.967Z,14.12
2022-10-06T23:45:28.627Z,13.97
2022-10-06T23:50:34.980Z,13.98
2022-10-06T23:55:40.782Z,13.64
